createdAt,value
2023-03-22T00:00:15.159Z,11.34
2023-03-22T00:02:43.653Z,11.32
2023-03-22T00:05:12.128Z,11.33
2023-03-22T00:07:41.429Z,11.31
2023-03-22T00:10:10.687Z,11.31
2023-03-22T00:12:39.047Z,11.31
2023-03-22T00:15:09.443Z,11.30
2023-03-22T00:17:39.290Z,11.30
2023-03-22T00:20:09.183Z,11.30
2023-03-22T00:22:37.642Z,11.31
2023-03-22T00:25:07.337Z,11.30
2023-03-22T00:27:35.830Z,11.30
2023-03-22T00:30:04.801Z,11.31
2023-03-22T00:32:36.314Z,11.31
2023-03-22T00:35:07.937Z,11.31
2023-03-22T00:37:38.718Z,11.30
2023-03-22T00:40:09.858Z,11.29
2023-03-22T00:42:38.883Z,11.30
2023-03-22T00:45:12.086Z,11.29
2023-03-22T00:47:40.836Z,11.28
2023-03-22T00:50:11.648Z,11.27
2023-03-22T00:52:40.051Z,11.26
2023-03-22T00:55:09.105Z,11.22
2023-03-22T00:57:37.842Z,11.21
2023-03-22T01:00:11.011Z,11.18
2023-03-22T01:02:40.223Z,11.16
2023-03-22T01:05:15.660Z,11.13
2023-03-22T01:07:44.830Z,11.10
2023-03-22T01:10:13.694Z,11.09
2023-03-22T01:12:42.741Z,11.05
2023-03-22T01:15:12.495Z,11.02
2023-03-22T01:17:41.079Z,10.98
2023-03-22T01:20:11.112Z,10.97
2023-03-22T01:22:41.660Z,10.96
2023-03-22T01:25:11.216Z,10.94
2023-03-22T01:27:39.736Z,10.93
2023-03-22T01:30:09.568Z,10.92
2023-03-22T01:32:38.415Z,10.91
2023-03-22T01:35:08.023Z,10.89
2023-03-22T01:37:37.309Z,10.86
2023-03-22T01:40:09.289Z,10.83
2023-03-22T01:42:37.681Z,10.80
2023-03-22T01:45:40.110Z,10.77
2023-03-22T01:48:29.221Z,10.73
2023-03-22T01:51:07.181Z,10.69
2023-03-22T01:53:43.914Z,10.66
2023-03-22T01:56:14.605Z,10.63
2023-03-22T01:58:43.798Z,10.60
2023-03-22T02:01:14.364Z,10.55
2023-03-22T02:03:54.531Z,10.52
2023-03-22T02:06:24.882Z,10.49
2023-03-22T02:09:01.169Z,10.45
2023-03-22T02:11:35.662Z,10.42
2023-03-22T02:14:19.999Z,10.37
2023-03-22T02:17:20.754Z,10.34
2023-03-22T02:20:39.978Z,10.33
2023-03-22T02:23:32.601Z,10.29
2023-03-22T02:26:35.966Z,10.27
2023-03-22T02:29:12.701Z,10.24
2023-03-22T02:31:59.390Z,10.22
2023-03-22T02:35:03.317Z,10.21
2023-03-22T02:38:02.305Z,10.19
2023-03-22T02:40:37.322Z,10.18
2023-03-22T02:43:13.862Z,10.18
2023-03-22T02:45:49.040Z,10.15
2023-03-22T02:48:23.064Z,10.13
2023-03-22T02:50:55.705Z,10.12
2023-03-22T02:53:29.153Z,10.10
2023-03-22T02:56:03.957Z,10.08
2023-03-22T02:58:37.252Z,10.07
2023-03-22T03:01:08.802Z,10.05
2023-03-22T03:03:39.690Z,10.05
2023-03-22T03:06:12.543Z,10.02
2023-03-22T03:08:42.277Z,10.02
2023-03-22T03:11:12.527Z,9.99
2023-03-22T03:13:41.039Z,9.98
2023-03-22T03:16:17.578Z,9.98
2023-03-22T03:18:52.440Z,9.96
2023-03-22T03:21:30.008Z,9.94
2023-03-22T03:24:06.984Z,9.92
2023-03-22T03:26:44.566Z,9.91
2023-03-22T03:29:19.264Z,9.89
2023-03-22T03:31:54.623Z,9.88
2023-03-22T03:34:27.336Z,9.87
2023-03-22T03:37:01.061Z,9.86
2023-03-22T03:39:34.152Z,9.87
2023-03-22T03:42:06.119Z,9.85
2023-03-22T03:44:37.246Z,9.83
2023-03-22T03:47:08.497Z,9.83
2023-03-22T03:49:37.188Z,9.82
2023-03-22T03:52:07.147Z,9.80
2023-03-22T03:54:35.880Z,9.78
2023-03-22T03:57:08.091Z,9.77
2023-03-22T03:59:39.105Z,9.76
2023-03-22T04:02:15.003Z,9.77
2023-03-22T04:04:43.745Z,9.76
2023-03-22T04:07:12.291Z,9.75
2023-03-22T04:09:41.489Z,9.75
2023-03-22T04:12:37.484Z,9.72
2023-03-22T04:15:14.650Z,9.72
2023-03-22T04:17:46.555Z,9.70
2023-03-22T04:20:16.496Z,9.69
2023-03-22T04:22:46.847Z,9.67
2023-03-22T04:25:18.238Z,9.67
2023-03-22T04:28:00.545Z,9.64
2023-03-22T04:30:30.807Z,9.65
2023-03-22T04:32:59.235Z,9.63
2023-03-22T04:35:40.932Z,9.62
2023-03-22T04:38:09.866Z,9.62
2023-03-22T04:40:39.242Z,9.61
2023-03-22T04:43:15.683Z,9.59
2023-03-22T04:45:58.382Z,9.58
2023-03-22T04:48:33.207Z,9.57
2023-03-22T04:51:04.212Z,9.55
2023-03-22T04:53:39.427Z,9.54
2023-03-22T04:56:11.823Z,9.54
2023-03-22T04:58:43.764Z,9.53
2023-03-22T05:01:14.197Z,9.52
2023-03-22T05:03:47.378Z,9.49
2023-03-22T05:06:18.489Z,9.49
2023-03-22T05:08:56.588Z,9.49
2023-03-22T05:11:27.804Z,9.46
2023-03-22T05:14:32.873Z,9.49
2023-03-22T05:17:01.691Z,9.49
2023-03-22T05:19:30.567Z,9.50
2023-03-22T05:22:02.091Z,9.53
2023-03-22T05:24:51.280Z,9.54
2023-03-22T05:27:31.372Z,9.55
2023-03-22T05:30:20.284Z,9.57
2023-03-22T05:32:59.726Z,9.58
2023-03-22T05:35:28.382Z,9.60
2023-03-22T05:37:58.637Z,9.61
2023-03-22T05:40:29.787Z,9.64
2023-03-22T05:42:58.370Z,9.66
2023-03-22T05:45:31.712Z,9.68
2023-03-22T05:48:18.629Z,9.71
2023-03-22T05:50:47.323Z,9.76
2023-03-22T05:53:16.327Z,9.78
2023-03-22T05:55:50.328Z,9.82
2023-03-22T05:58:19.159Z,9.84
2023-03-22T06:00:51.429Z,9.86
2023-03-22T06:03:22.996Z,9.90
2023-03-22T06:05:57.302Z,9.93
2023-03-22T06:08:40.424Z,9.95
2023-03-22T06:11:09.732Z,10.00
2023-03-22T06:13:38.786Z,10.03
2023-03-22T06:16:09.857Z,10.05
2023-03-22T06:18:38.288Z,10.09
2023-03-22T06:21:11.616Z,10.12
2023-03-22T06:23:40.037Z,10.14
2023-03-22T06:26:11.381Z,10.17
2023-03-22T06:28:40.351Z,10.19
2023-03-22T06:31:11.414Z,10.20
2023-03-22T06:33:48.611Z,10.22
2023-03-22T06:36:26.461Z,10.23
2023-03-22T06:39:15.953Z,10.25
2023-03-22T06:41:46.695Z,10.25
2023-03-22T06:44:16.107Z,10.27
2023-03-22T06:47:06.181Z,10.28
2023-03-22T06:49:55.251Z,10.30
2023-03-22T06:52:27.543Z,10.32
2023-03-22T06:54:57.209Z,10.35
2023-03-22T06:57:26.383Z,10.37
2023-03-22T06:59:54.873Z,10.41
2023-03-22T07:02:24.710Z,10.43
2023-03-22T07:05:19.401Z,10.46
2023-03-22T07:07:47.978Z,10.48
2023-03-22T07:10:16.556Z,10.51
2023-03-22T07:12:45.137Z,10.54
2023-03-22T07:15:17.422Z,10.57
2023-03-22T07:18:08.518Z,10.62
2023-03-22T07:20:40.800Z,10.65
2023-03-22T07:23:10.732Z,10.69
2023-03-22T07:25:47.652Z,10.75
2023-03-22T07:28:29.402Z,10.81
2023-03-22T07:31:03.012Z,10.87
2023-03-22T07:33:39.114Z,10.93
2023-03-22T07:36:09.632Z,11.00
2023-03-22T07:38:38.403Z,11.06
2023-03-22T07:41:11.066Z,11.13
2023-03-22T07:44:07.755Z,11.20
2023-03-22T07:46:48.201Z,11.27
2023-03-22T07:49:25.339Z,11.33
2023-03-22T07:52:07.830Z,11.37
2023-03-22T07:54:36.325Z,11.41
2023-03-22T07:57:08.606Z,11.43
2023-03-22T07:59:43.513Z,11.48
2023-03-22T08:02:12.348Z,11.49
2023-03-22T08:04:51.849Z,11.52
2023-03-22T08:07:31.620Z,11.53
2023-03-22T08:10:00.430Z,11.56
2023-03-22T08:12:29.144Z,11.58
2023-03-22T08:15:08.165Z,11.61
2023-03-22T08:17:37.181Z,11.65
2023-03-22T08:20:10.649Z,11.68
2023-03-22T08:22:47.400Z,11.71
2023-03-22T08:25:33.824Z,11.73
2023-03-22T08:28:09.200Z,11.75
2023-03-22T08:30:38.859Z,11.76
2023-03-22T08:33:07.575Z,11.78
2023-03-22T08:35:37.864Z,11.79
2023-03-22T08:38:06.520Z,11.81
2023-03-22T08:40:42.897Z,11.83
2023-03-22T08:43:11.421Z,11.85
2023-03-22T08:45:40.229Z,11.86
2023-03-22T08:48:16.653Z,11.85
2023-03-22T08:51:02.129Z,11.86
2023-03-22T08:53:40.561Z,11.90
2023-03-22T08:56:32.433Z,11.91
2023-03-22T08:59:12.815Z,11.92
2023-03-22T09:01:55.782Z,11.94
2023-03-22T09:04:24.362Z,11.97
2023-03-22T09:06:54.259Z,12.01
2023-03-22T09:09:22.735Z,12.04
2023-03-22T09:11:54.190Z,12.09
2023-03-22T09:14:22.808Z,12.13
2023-03-22T09:16:51.847Z,12.15
2023-03-22T09:19:20.786Z,12.17
2023-03-22T09:21:50.004Z,12.21
2023-03-22T09:24:29.964Z,12.24
2023-03-22T09:27:01.884Z,12.24
2023-03-22T09:29:30.645Z,12.26
2023-03-22T09:32:00.621Z,12.29
2023-03-22T09:34:33.193Z,12.37
2023-03-22T09:37:04.167Z,12.48
2023-03-22T09:39:44.671Z,12.54
2023-03-22T09:42:29.344Z,12.58
2023-03-22T09:45:02.459Z,12.61
2023-03-22T09:47:44.167Z,12.64
2023-03-22T09:50:17.081Z,12.61
2023-03-22T09:52:46.134Z,12.59
2023-03-22T09:55:22.359Z,12.58
2023-03-22T09:57:59.804Z,12.58
2023-03-22T10:00:38.932Z,12.58
2023-03-22T10:03:19.186Z,12.59
2023-03-22T10:05:54.250Z,12.58
2023-03-22T10:08:37.699Z,12.61
2023-03-22T10:11:19.568Z,12.66
2023-03-22T10:13:58.519Z,12.72
2023-03-22T10:16:29.362Z,12.73
2023-03-22T10:19:05.829Z,12.81
2023-03-22T10:21:36.045Z,12.87
2023-03-22T10:24:13.909Z,12.92
2023-03-22T10:26:46.950Z,12.97
2023-03-22T10:29:23.102Z,13.03
2023-03-22T10:31:51.594Z,13.09
2023-03-22T10:34:24.279Z,13.14
2023-03-22T10:36:53.814Z,13.14
2023-03-22T10:39:31.183Z,13.17
2023-03-22T10:42:03.870Z,13.22
2023-03-22T10:44:38.954Z,13.24
2023-03-22T10:47:10.992Z,13.27
2023-03-22T10:49:43.828Z,13.33
2023-03-22T10:52:24.001Z,13.34
2023-03-22T10:54:52.727Z,13.36
2023-03-22T10:57:22.574Z,13.35
2023-03-22T10:59:52.430Z,13.34
2023-03-22T11:02:23.857Z,13.32
2023-03-22T11:04:54.422Z,13.34
2023-03-22T11:07:33.294Z,13.35
2023-03-22T11:10:23.545Z,13.37
2023-03-22T11:12:56.122Z,13.38
2023-03-22T11:15:31.107Z,13.38
2023-03-22T11:18:02.015Z,13.37
2023-03-22T11:20:31.312Z,13.33
2023-03-22T11:23:02.899Z,13.31
2023-03-22T11:25:33.551Z,13.31
2023-03-22T11:28:16.465Z,13.31
2023-03-22T11:31:00.987Z,13.31
2023-03-22T11:33:29.830Z,13.29
2023-03-22T11:35:59.766Z,13.23
2023-03-22T11:38:31.574Z,13.22
2023-03-22T11:41:02.485Z,13.20
2023-03-22T11:43:37.076Z,13.15
2023-03-22T11:46:05.885Z,13.10
2023-03-22T11:48:35.223Z,13.10
2023-03-22T11:51:10.339Z,13.10
2023-03-22T11:53:41.706Z,13.12
2023-03-22T11:56:12.574Z,13.10
2023-03-22T11:58:59.613Z,13.13
2023-03-22T12:01:41.879Z,13.17
2023-03-22T12:04:15.662Z,13.22
2023-03-22T12:06:44.584Z,13.24
2023-03-22T12:09:25.640Z,13.25
2023-03-22T12:11:57.847Z,13.25
2023-03-22T12:14:30.924Z,13.24
2023-03-22T12:17:02.639Z,13.24
2023-03-22T12:19:44.376Z,13.25
2023-03-22T12:22:16.912Z,13.27
2023-03-22T12:24:45.299Z,13.26
2023-03-22T12:27:20.346Z,13.26
2023-03-22T12:29:55.826Z,13.29
2023-03-22T12:32:28.842Z,13.30
2023-03-22T12:35:16.082Z,13.31
2023-03-22T12:37:49.614Z,13.29
2023-03-22T12:40:23.918Z,13.26
2023-03-22T12:43:00.595Z,13.26
2023-03-22T12:45:37.141Z,13.22
2023-03-22T12:48:13.119Z,13.22
2023-03-22T12:50:46.249Z,13.19
2023-03-22T12:53:17.336Z,13.16
2023-03-22T12:55:47.680Z,13.15
2023-03-22T12:58:20.831Z,13.13
2023-03-22T13:00:55.654Z,13.09
2023-03-22T13:03:28.677Z,13.08
2023-03-22T13:06:04.497Z,13.05
2023-03-22T13:09:06.244Z,13.03
2023-03-22T13:11:34.633Z,13.00
2023-03-22T13:14:03.039Z,12.98
2023-03-22T13:16:51.022Z,13.00
2023-03-22T13:19:29.941Z,12.97
2023-03-22T13:22:17.546Z,12.98
2023-03-22T13:25:28.898Z,12.97
2023-03-22T13:27:59.012Z,12.97
2023-03-22T13:30:33.032Z,12.98
2023-03-22T13:33:15.436Z,12.97
2023-03-22T13:35:47.687Z,12.98
2023-03-22T13:38:22.867Z,12.98
2023-03-22T13:40:57.795Z,13.00
2023-03-22T13:43:30.937Z,13.01
2023-03-22T13:46:13.851Z,13.03
2023-03-22T13:48:54.377Z,13.04
2023-03-22T13:51:31.166Z,13.05
2023-03-22T13:54:05.368Z,13.07
2023-03-22T13:56:48.507Z,13.10
2023-03-22T13:59:21.638Z,13.14
2023-03-22T14:01:53.770Z,13.15
2023-03-22T14:04:35.000Z,13.18
2023-03-22T14:07:10.748Z,13.20
2023-03-22T14:09:44.493Z,13.23
2023-03-22T14:12:20.645Z,13.24
2023-03-22T14:14:54.355Z,13.26
2023-03-22T14:17:32.443Z,13.29
2023-03-22T14:20:05.154Z,13.30
